Terminal Aerodrome Forecast
Issued by NWS Wilmington, OH

Current Version | Previous Version | Graphics & Text | Print | Product List | Glossary On
Versions: 1 2 3 4 5 6 7 8 9 10 11 12 13 14 15 16 17 18 19 20 21 22 23
000
FTUS41 KILN 140049 AAB
TAFCMH
TAF AMD
KCMH 140049Z 1401/1424 16008KT P6SM VCSH OVC050
     FM140300 23018G30KT P6SM -DZ OVC025
     FM140500 26019G32KT P6SM -DZ OVC025
     FM140700 29015G26KT P6SM OVC015
     FM141200 33009KT P6SM BKN015
     FM141700 33006KT P6SM BKN025
     FM142300 VRB03KT P6SM BKN050=

USA.gov is the U.S. government's official web portal to all federal, state and local government web resources and services.